Terminal Aerodrome Forecast
Issued by NWS Pocatello, ID

Home | Current Version | Previous Version | Text Only | Print | Product List | Glossary On
Versions: 1 2 3 4 5 6 7 8 9 10 11 12 13 14 15 16 17 18 19 20 21 22 23 24 25 26 27 28 29 30
075
FTUS45 KPIH 091513 AAC
TAFIDA
TAF AMD
KIDA 091513Z 0915/1012 VRB03KT 1/2SM FZFG OVC002
      TEMPO 0915/0917 1/4SM FZFG
     FM091700 36005KT 3SM BR BKN007 OVC010
     FM100200 VRB03KT 1/2SM FZFG SCT001 OVC002=

USA.gov is the U.S. government's official web portal to all federal, state and local government web resources and services.